sensor_id;sensor_type;location;lat;lon;timestamp;pressure;altitude;pressure_sealevel;temperature;humidity
72896;BME280;61036;53.224;6.554;2024-03-08T00:00:16;100369.81;;;2.80;100.00
72896;BME280;61036;53.224;6.554;2024-03-08T00:02:44;100353.78;;;2.81;100.00
72896;BME280;61036;53.224;6.554;2024-03-08T00:05:10;100339.28;;;2.87;100.00
72896;BME280;61036;53.224;6.554;2024-03-08T00:07:36;100333.88;;;2.88;100.00
72896;BME280;61036;53.224;6.554;2024-03-08T00:10:03;100323.06;;;2.91;100.00
72896;BME280;61036;53.224;6.554;2024-03-08T00:12:29;100327.06;;;2.83;100.00
72896;BME280;61036;53.224;6.554;2024-03-08T00:14:54;100324.38;;;2.83;100.00
72896;BME280;61036;53.224;6.554;2024-03-08T00:17:21;100320.00;;;2.82;100.00
72896;BME280;61036;53.224;6.554;2024-03-08T00:19:50;100312.13;;;2.80;100.00
72896;BME280;61036;53.224;6.554;2024-03-08T00:22:16;100312.03;;;2.82;100.00
72896;BME280;61036;53.224;6.554;2024-03-08T00:24:42;100302.47;;;2.78;100.00
72896;BME280;61036;53.224;6.554;2024-03-08T00:27:09;100305.06;;;2.79;100.00
72896;BME280;61036;53.224;6.554;2024-03-08T00:29:35;100310.47;;;2.78;100.00
72896;BME280;61036;53.224;6.554;2024-03-08T00:32:00;100310.38;;;2.79;100.00
72896;BME280;61036;53.224;6.554;2024-03-08T00:34:26;100300.59;;;2.80;100.00
72896;BME280;61036;53.224;6.554;2024-03-08T00:36:52;100313.19;;;2.76;100.00
72896;BME280;61036;53.224;6.554;2024-03-08T00:39:18;100316.81;;;2.75;100.00
72896;BME280;61036;53.224;6.554;2024-03-08T00:41:46;100337.94;;;2.61;100.00
72896;BME280;61036;53.224;6.554;2024-03-08T00:44:11;100340.28;;;2.67;100.00
72896;BME280;61036;53.224;6.554;2024-03-08T00:46:37;100326.28;;;2.81;100.00
72896;BME280;61036;53.224;6.554;2024-03-08T00:49:03;100335.78;;;2.86;100.00
72896;BME280;61036;53.224;6.554;2024-03-08T00:51:28;100346.41;;;2.69;100.00
72896;BME280;61036;53.224;6.554;2024-03-08T00:53:54;100357.84;;;2.71;100.00
72896;BME280;61036;53.224;6.554;2024-03-08T00:56:20;100341.31;;;2.82;100.00
72896;BME280;61036;53.224;6.554;2024-03-08T00:58:46;100342.94;;;2.67;100.00
72896;BME280;61036;53.224;6.554;2024-03-08T01:01:13;100344.44;;;2.72;100.00
72896;BME280;61036;53.224;6.554;2024-03-08T01:03:43;100343.66;;;2.70;100.00
72896;BME280;61036;53.224;6.554;2024-03-08T01:06:08;100347.56;;;2.63;100.00
72896;BME280;61036;53.224;6.554;2024-03-08T01:08:34;100346.78;;;2.61;100.00
72896;BME280;61036;53.224;6.554;2024-03-08T01:11:00;100349.53;;;2.60;100.00
72896;BME280;61036;53.224;6.554;2024-03-08T01:13:25;100351.50;;;2.56;100.00
72896;BME280;61036;53.224;6.554;2024-03-08T01:15:51;100342.38;;;2.43;100.00
72896;BME280;61036;53.224;6.554;2024-03-08T01:18:17;100332.06;;;2.54;100.00
72896;BME280;61036;53.224;6.554;2024-03-08T01:20:42;100337.38;;;2.54;100.00
72896;BME280;61036;53.224;6.554;2024-03-08T01:23:08;100340.84;;;2.56;100.00
72896;BME280;61036;53.224;6.554;2024-03-08T01:25:34;100337.84;;;2.45;100.00
72896;BME280;61036;53.224;6.554;2024-03-08T01:27:59;100336.69;;;2.50;100.00
72896;BME280;61036;53.224;6.554;2024-03-08T01:30:25;100332.44;;;2.46;100.00
72896;BME280;61036;53.224;6.554;2024-03-08T01:32:50;100329.78;;;2.46;100.00
72896;BME280;61036;53.224;6.554;2024-03-08T01:35:16;100322.41;;;2.34;100.00
72896;BME280;61036;53.224;6.554;2024-03-08T01:37:42;100319.13;;;2.29;100.00
72896;BME280;61036;53.224;6.554;2024-03-08T01:40:07;100306.28;;;2.37;100.00
72896;BME280;61036;53.224;6.554;2024-03-08T01:42:34;100311.13;;;2.29;100.00
72896;BME280;61036;53.224;6.554;2024-03-08T01:45:07;100317.38;;;2.28;100.00
72896;BME280;61036;53.224;6.554;2024-03-08T01:47:34;100321.13;;;2.24;100.00
72896;BME280;61036;53.224;6.554;2024-03-08T01:50:01;100321.84;;;2.27;100.00
72896;BME280;61036;53.224;6.554;2024-03-08T01:52:31;100313.94;;;2.26;100.00
72896;BME280;61036;53.224;6.554;2024-03-08T01:55:01;100306.28;;;2.20;100.00
72896;BME280;61036;53.224;6.554;2024-03-08T01:57:31;100307.34;;;2.16;100.00
72896;BME280;61036;53.224;6.554;2024-03-08T02:00:00;100313.06;;;2.25;100.00
72896;BME280;61036;53.224;6.554;2024-03-08T02:02:32;100309.00;;;2.18;100.00
72896;BME280;61036;53.224;6.554;2024-03-08T02:05:00;100322.78;;;2.08;100.00
72896;BME280;61036;53.224;6.554;2024-03-08T02:07:26;100327.19;;;2.09;100.00
72896;BME280;61036;53.224;6.554;2024-03-08T02:09:51;100319.38;;;2.05;100.00
72896;BME280;61036;53.224;6.554;2024-03-08T02:12:17;100321.38;;;2.00;100.00
72896;BME280;61036;53.224;6.554;2024-03-08T02:14:46;100311.69;;;1.99;100.00
72896;BME280;61036;53.224;6.554;2024-03-08T02:17:12;100305.22;;;2.05;100.00
72896;BME280;61036;53.224;6.554;2024-03-08T02:19:38;100315.13;;;2.01;100.00
72896;BME280;61036;53.224;6.554;2024-03-08T02:22:04;100315.13;;;2.01;100.00
72896;BME280;61036;53.224;6.554;2024-03-08T02:24:32;100317.38;;;2.11;100.00
72896;BME280;61036;53.224;6.554;2024-03-08T02:26:57;100324.03;;;2.00;100.00
72896;BME280;61036;53.224;6.554;2024-03-08T02:29:23;100320.13;;;2.08;100.00
72896;BME280;61036;53.224;6.554;2024-03-08T02:31:51;100323.97;;;2.02;100.00
72896;BME280;61036;53.224;6.554;2024-03-08T02:34:17;100329.81;;;1.91;100.00
72896;BME280;61036;53.224;6.554;2024-03-08T02:36:42;100329.75;;;1.93;100.00
72896;BME280;61036;53.224;6.554;2024-03-08T02:39:08;100332.41;;;1.93;100.00
72896;BME280;61036;53.224;6.554;2024-03-08T02:41:36;100326.66;;;2.02;100.00
72896;BME280;61036;53.224;6.554;2024-03-08T02:44:02;100331.75;;;1.88;100.00
72896;BME280;61036;53.224;6.554;2024-03-08T02:46:27;100328.94;;;1.91;100.00
72896;BME280;61036;53.224;6.554;2024-03-08T02:48:53;100325.47;;;1.89;100.00
72896;BME280;61036;53.224;6.554;2024-03-08T02:51:18;100334.91;;;1.77;100.00
72896;BME280;61036;53.224;6.554;2024-03-08T02:53:45;100329.38;;;1.81;100.00
72896;BME280;61036;53.224;6.554;2024-03-08T02:56:10;100321.41;;;1.81;100.00
72896;BME280;61036;53.224;6.554;2024-03-08T02:58:38;100319.81;;;1.77;100.00
72896;BME280;61036;53.224;6.554;2024-03-08T03:01:07;100322.31;;;1.80;100.00
72896;BME280;61036;53.224;6.554;2024-03-08T03:03:33;100321.31;;;1.83;100.00
72896;BME280;61036;53.224;6.554;2024-03-08T03:05:58;100324.97;;;1.80;100.00
72896;BME280;61036;53.224;6.554;2024-03-08T03:08:24;100327.00;;;1.75;100.00
72896;BME280;61036;53.224;6.554;2024-03-08T03:10:49;100328.38;;;1.84;100.00
72896;BME280;61036;53.224;6.554;2024-03-08T03:13:15;100338.63;;;1.73;100.00
72896;BME280;61036;53.224;6.554;2024-03-08T03:15:40;100328.44;;;1.82;100.00
72896;BME280;61036;53.224;6.554;2024-03-08T03:18:07;100329.81;;;1.72;100.00
72896;BME280;61036;53.224;6.554;2024-03-08T03:20:33;100342.44;;;1.67;100.00
72896;BME280;61036;53.224;6.554;2024-03-08T03:23:06;100343.44;;;1.65;100.00
72896;BME280;61036;53.224;6.554;2024-03-08T03:25:34;100339.94;;;1.64;100.00
72896;BME280;61036;53.224;6.554;2024-03-08T03:28:03;100342.09;;;1.75;100.00
72896;BME280;61036;53.224;6.554;2024-03-08T03:30:30;100346.94;;;1.65;100.00
72896;BME280;61036;53.224;6.554;2024-03-08T03:33:02;100344.38;;;1.64;100.00
72896;BME280;61036;53.224;6.554;2024-03-08T03:35:32;100349.84;;;1.60;100.00
72896;BME280;61036;53.224;6.554;2024-03-08T03:37:58;100348.03;;;1.61;100.00
72896;BME280;61036;53.224;6.554;2024-03-08T03:40:39;100345.66;;;1.55;100.00
72896;BME280;61036;53.224;6.554;2024-03-08T03:43:05;100346.59;;;1.54;100.00
72896;BME280;61036;53.224;6.554;2024-03-08T03:45:31;100347.66;;;1.50;100.00
72896;BME280;61036;53.224;6.554;2024-03-08T03:48:02;100336.75;;;1.56;100.00
72896;BME280;61036;53.224;6.554;2024-03-08T03:50:28;100340.97;;;1.41;100.00
72896;BME280;61036;53.224;6.554;2024-03-08T03:52:54;100337.75;;;1.53;100.00
72896;BME280;61036;53.224;6.554;2024-03-08T03:55:19;100334.50;;;1.47;100.00
72896;BME280;61036;53.224;6.554;2024-03-08T03:57:45;100334.22;;;1.53;100.00
72896;BME280;61036;53.224;6.554;2024-03-08T04:00:11;100329.63;;;1.56;100.00
72896;BME280;61036;53.224;6.554;2024-03-08T04:02:41;100330.44;;;1.58;100.00
72896;BME280;61036;53.224;6.554;2024-03-08T04:05:08;100335.22;;;1.50;100.00
72896;BME280;61036;53.224;6.554;2024-03-08T04:07:35;100330.94;;;1.48;100.00
72896;BME280;61036;53.224;6.554;2024-03-08T04:10:05;100319.22;;;1.52;100.00
72896;BME280;61036;53.224;6.554;2024-03-08T04:12:34;100318.84;;;1.41;100.00
72896;BME280;61036;53.224;6.554;2024-03-08T04:15:00;100323.59;;;1.34;100.00
72896;BME280;61036;53.224;6.554;2024-03-08T04:17:26;100330.13;;;1.27;100.00
72896;BME280;61036;53.224;6.554;2024-03-08T04:19:52;100326.72;;;1.23;100.00
72896;BME280;61036;53.224;6.554;2024-03-08T04:22:18;100323.28;;;1.21;100.00
72896;BME280;61036;53.224;6.554;2024-03-08T04:24:44;100318.03;;;1.20;100.00
72896;BME280;61036;53.224;6.554;2024-03-08T04:27:11;100319.97;;;1.16;100.00
72896;BME280;61036;53.224;6.554;2024-03-08T04:29:37;100314.78;;;1.13;100.00
72896;BME280;61036;53.224;6.554;2024-03-08T04:32:04;100311.28;;;1.12;100.00
72896;BME280;61036;53.224;6.554;2024-03-08T04:34:30;100302.44;;;1.12;100.00
72896;BME280;61036;53.224;6.554;2024-03-08T04:36:59;100302.09;;;1.20;100.00
72896;BME280;61036;53.224;6.554;2024-03-08T04:39:25;100310.03;;;1.01;100.00
72896;BME280;61036;53.224;6.554;2024-03-08T04:41:54;100308.66;;;1.11;100.00
72896;BME280;61036;53.224;6.554;2024-03-08T04:44:23;100309.63;;;1.10;100.00
72896;BME280;61036;53.224;6.554;2024-03-08T04:46:49;100311.72;;;1.02;100.00
72896;BME280;61036;53.224;6.554;2024-03-08T04:49:15;100293.53;;;1.13;100.00
72896;BME280;61036;53.224;6.554;2024-03-08T04:51:41;100292.97;;;1.06;100.00
72896;BME280;61036;53.224;6.554;2024-03-08T04:54:06;100288.66;;;1.04;100.00
72896;BME280;61036;53.224;6.554;2024-03-08T04:56:32;100288.84;;;0.99;100.00
72896;BME280;61036;53.224;6.554;2024-03-08T04:58:58;100284.47;;;0.98;100.00
72896;BME280;61036;53.224;6.554;2024-03-08T05:01:24;100283.59;;;0.98;100.00
72896;BME280;61036;53.224;6.554;2024-03-08T05:03:50;100281.34;;;1.09;100.00
72896;BME280;61036;53.224;6.554;2024-03-08T05:06:16;100277.03;;;1.06;100.00
72896;BME280;61036;53.224;6.554;2024-03-08T05:08:42;100277.34;;;1.19;100.00
72896;BME280;61036;53.224;6.554;2024-03-08T05:11:08;100282.66;;;0.99;100.00
72896;BME280;61036;53.224;6.554;2024-03-08T05:13:34;100284.41;;;1.00;100.00
72896;BME280;61036;53.224;6.554;2024-03-08T05:16:00;100288.19;;;0.94;100.00
72896;BME280;61036;53.224;6.554;2024-03-08T05:18:26;100279.28;;;0.95;100.00
72896;BME280;61036;53.224;6.554;2024-03-08T05:20:53;100281.91;;;0.97;100.00
72896;BME280;61036;53.224;6.554;2024-03-08T05:23:19;100279.38;;;0.94;100.00
72896;BME280;61036;53.224;6.554;2024-03-08T05:25:45;100277.50;;;0.96;100.00
72896;BME280;61036;53.224;6.554;2024-03-08T05:28:12;100268.53;;;0.98;100.00
72896;BME280;61036;53.224;6.554;2024-03-08T05:30:38;100273.25;;;0.91;100.00
72896;BME280;61036;53.224;6.554;2024-03-08T05:33:04;100269.94;;;0.86;100.00
72896;BME280;61036;53.224;6.554;2024-03-08T05:35:30;100274.63;;;0.81;100.00
72896;BME280;61036;53.224;6.554;2024-03-08T05:37:56;100278.97;;;0.82;100.00
72896;BME280;61036;53.224;6.554;2024-03-08T05:40:23;100282.69;;;0.78;100.00
72896;BME280;61036;53.224;6.554;2024-03-08T05:42:49;100279.97;;;0.80;100.00
72896;BME280;61036;53.224;6.554;2024-03-08T05:45:15;100278.13;;;0.82;100.00
72896;BME280;61036;53.224;6.554;2024-03-08T05:47:40;100281.41;;;0.87;100.00
72896;BME280;61036;53.224;6.554;2024-03-08T05:50:06;100282.31;;;0.87;100.00
72896;BME280;61036;53.224;6.554;2024-03-08T05:52:35;100283.94;;;0.90;100.00
72896;BME280;61036;53.224;6.554;2024-03-08T05:55:01;100289.59;;;0.82;100.00
72896;BME280;61036;53.224;6.554;2024-03-08T05:57:27;100295.63;;;0.86;100.00
72896;BME280;61036;53.224;6.554;2024-03-08T05:59:53;100296.75;;;0.80;100.00
72896;BME280;61036;53.224;6.554;2024-03-08T06:02:18;100288.88;;;0.79;100.00
72896;BME280;61036;53.224;6.554;2024-03-08T06:04:46;100283.03;;;0.91;100.00
72896;BME280;61036;53.224;6.554;2024-03-08T06:07:12;100290.31;;;0.86;100.00
72896;BME280;61036;53.224;6.554;2024-03-08T06:09:38;100286.22;;;0.79;100.00
72896;BME280;61036;53.224;6.554;2024-03-08T06:12:04;100287.88;;;0.81;100.00
72896;BME280;61036;53.224;6.554;2024-03-08T06:14:31;100282.50;;;0.83;100.00
72896;BME280;61036;53.224;6.554;2024-03-08T06:16:57;100292.25;;;0.82;100.00
72896;BME280;61036;53.224;6.554;2024-03-08T06:19:23;100284.47;;;0.78;100.00
72896;BME280;61036;53.224;6.554;2024-03-08T06:21:48;100278.31;;;0.98;100.00
72896;BME280;61036;53.224;6.554;2024-03-08T06:24:14;100285.72;;;0.89;100.00
72896;BME280;61036;53.224;6.554;2024-03-08T06:26:40;100284.06;;;1.07;100.00
72896;BME280;61036;53.224;6.554;2024-03-08T06:29:06;100292.91;;;0.87;100.00
72896;BME280;61036;53.224;6.554;2024-03-08T06:31:34;100286.59;;;0.90;100.00
72896;BME280;61036;53.224;6.554;2024-03-08T06:34:04;100288.78;;;1.01;100.00
72896;BME280;61036;53.224;6.554;2024-03-08T06:36:33;100287.06;;;1.00;100.00
72896;BME280;61036;53.224;6.554;2024-03-08T06:38:59;100274.38;;;1.06;100.00
72896;BME280;61036;53.224;6.554;2024-03-08T06:41:24;100295.03;;;1.00;100.00
72896;BME280;61036;53.224;6.554;2024-03-08T06:43:50;100288.00;;;1.57;100.00
72896;BME280;61036;53.224;6.554;2024-03-08T06:46:17;100305.31;;;1.66;100.00
72896;BME280;61036;53.224;6.554;2024-03-08T06:48:43;100318.31;;;1.72;100.00
72896;BME280;61036;53.224;6.554;2024-03-08T06:51:10;100329.38;;;1.81;100.00
72896;BME280;61036;53.224;6.554;2024-03-08T06:53:36;100318.47;;;2.24;100.00
72896;BME280;61036;53.224;6.554;2024-03-08T06:56:02;100348.00;;;1.63;100.00
72896;BME280;61036;53.224;6.554;2024-03-08T06:58:28;100338.91;;;2.04;100.00
72896;BME280;61036;53.224;6.554;2024-03-08T07:00:54;100341.59;;;1.67;100.00
72896;BME280;61036;53.224;6.554;2024-03-08T07:03:24;100328.81;;;2.30;100.00
72896;BME280;61036;53.224;6.554;2024-03-08T07:05:49;100364.84;;;1.80;100.00
72896;BME280;61036;53.224;6.554;2024-03-08T07:08:15;100353.22;;;2.21;100.00
72896;BME280;61036;53.224;6.554;2024-03-08T07:10:42;100353.56;;;2.32;100.00
72896;BME280;61036;53.224;6.554;2024-03-08T07:13:08;100377.59;;;2.12;100.00
72896;BME280;61036;53.224;6.554;2024-03-08T07:15:34;100374.38;;;2.05;100.00
72896;BME280;61036;53.224;6.554;2024-03-08T07:18:01;100371.19;;;2.16;100.00
72896;BME280;61036;53.224;6.554;2024-03-08T07:20:27;100371.78;;;2.40;100.00
72896;BME280;61036;53.224;6.554;2024-03-08T07:22:54;100374.09;;;2.28;100.00
72896;BME280;61036;53.224;6.554;2024-03-08T07:25:20;100376.06;;;2.25;100.00
72896;BME280;61036;53.224;6.554;2024-03-08T07:27:49;100375.16;;;2.43;100.00
72896;BME280;61036;53.224;6.554;2024-03-08T07:30:17;100360.97;;;2.79;100.00
72896;BME280;61036;53.224;6.554;2024-03-08T07:33:03;100383.38;;;2.39;100.00
72896;BME280;61036;53.224;6.554;2024-03-08T07:35:29;100369.03;;;2.24;100.00
72896;BME280;61036;53.224;6.554;2024-03-08T07:37:55;100365.31;;;2.45;100.00
72896;BME280;61036;53.224;6.554;2024-03-08T07:40:21;100364.22;;;2.49;100.00
72896;BME280;61036;53.224;6.554;2024-03-08T07:42:47;100374.28;;;2.96;100.00
72896;BME280;61036;53.224;6.554;2024-03-08T07:45:12;100374.44;;;4.10;100.00
72896;BME280;61036;53.224;6.554;2024-03-08T07:47:38;100406.22;;;3.82;100.00
72896;BME280;61036;53.224;6.554;2024-03-08T07:50:06;100424.66;;;3.86;100.00
72896;BME280;61036;53.224;6.554;2024-03-08T07:52:34;100444.00;;;4.23;100.00
72896;BME280;61036;53.224;6.554;2024-03-08T07:55:00;100438.22;;;4.94;100.00
72896;BME280;61036;53.224;6.554;2024-03-08T07:57:25;100501.91;;;5.02;100.00
72896;BME280;61036;53.224;6.554;2024-03-08T07:59:51;100519.66;;;6.38;100.00
72896;BME280;61036;53.224;6.554;2024-03-08T08:02:17;100581.63;;;6.46;100.00
72896;BME280;61036;53.224;6.554;2024-03-08T08:04:43;100816.09;;;7.98;100.00
72896;BME280;61036;53.224;6.554;2024-03-08T08:07:10;100852.06;;;7.67;100.00
72896;BME280;61036;53.224;6.554;2024-03-08T08:09:36;101007.22;;;8.33;100.00
72896;BME280;61036;53.224;6.554;2024-03-08T08:12:03;101072.31;;;8.81;100.00
72896;BME280;61036;53.224;6.554;2024-03-08T08:14:30;101117.06;;;8.97;100.00
72896;BME280;61036;53.224;6.554;2024-03-08T08:16:56;101205.44;;;8.88;100.00
72896;BME280;61036;53.224;6.554;2024-03-08T08:19:23;101220.28;;;10.47;100.00
72896;BME280;61036;53.224;6.554;2024-03-08T08:21:51;101204.59;;;9.99;100.00
72896;BME280;61036;53.224;6.554;2024-03-08T08:24:17;101237.53;;;9.06;100.00
72896;BME280;61036;53.224;6.554;2024-03-08T08:26:42;101146.94;;;7.73;100.00
72896;BME280;61036;53.224;6.554;2024-03-08T08:29:09;101024.19;;;5.50;100.00
72896;BME280;61036;53.224;6.554;2024-03-08T08:31:35;100842.53;;;5.30;100.00
72896;BME280;61036;53.224;6.554;2024-03-08T08:34:01;100727.91;;;5.23;100.00
72896;BME280;61036;53.224;6.554;2024-03-08T08:36:28;100685.97;;;6.03;100.00
72896;BME280;61036;53.224;6.554;2024-03-08T08:38:55;100659.19;;;6.33;100.00
72896;BME280;61036;53.224;6.554;2024-03-08T08:41:23;100687.28;;;5.96;100.00
72896;BME280;61036;53.224;6.554;2024-03-08T08:43:48;100679.75;;;6.03;100.00
72896;BME280;61036;53.224;6.554;2024-03-08T08:46:17;100729.44;;;6.23;100.00
72896;BME280;61036;53.224;6.554;2024-03-08T08:48:44;100680.25;;;4.98;100.00
72896;BME280;61036;53.224;6.554;2024-03-08T08:51:13;100618.56;;;5.03;100.00
72896;BME280;61036;53.224;6.554;2024-03-08T08:53:42;100611.97;;;5.40;100.00
72896;BME280;61036;53.224;6.554;2024-03-08T08:56:13;100617.97;;;6.36;100.00
72896;BME280;61036;53.224;6.554;2024-03-08T08:58:40;100612.06;;;5.07;100.00
72896;BME280;61036;53.224;6.554;2024-03-08T09:01:08;100562.88;;;6.46;100.00
72896;BME280;61036;53.224;6.554;2024-03-08T09:03:38;100676.94;;;8.30;100.00
72896;BME280;61036;53.224;6.554;2024-03-08T09:06:08;100800.22;;;7.23;100.00
72896;BME280;61036;53.224;6.554;2024-03-08T09:08:37;100748.19;;;5.59;100.00
72896;BME280;61036;53.224;6.554;2024-03-08T09:11:05;100673.66;;;6.45;100.00
72896;BME280;61036;53.224;6.554;2024-03-08T09:13:31;100806.03;;;7.73;100.00
72896;BME280;61036;53.224;6.554;2024-03-08T09:15:58;100926.22;;;7.39;100.00
72896;BME280;61036;53.224;6.554;2024-03-08T09:18:24;100781.16;;;4.93;100.00
72896;BME280;61036;53.224;6.554;2024-03-08T09:20:49;100586.13;;;5.09;100.00
72896;BME280;61036;53.224;6.554;2024-03-08T09:23:15;100541.13;;;5.47;100.00
72896;BME280;61036;53.224;6.554;2024-03-08T09:25:42;100523.97;;;5.06;100.00
72896;BME280;61036;53.224;6.554;2024-03-08T09:28:09;100543.06;;;5.76;100.00
72896;BME280;61036;53.224;6.554;2024-03-08T09:30:37;100543.56;;;6.27;100.00
72896;BME280;61036;53.224;6.554;2024-03-08T09:33:04;100579.44;;;5.64;100.00
72896;BME280;61036;53.224;6.554;2024-03-08T09:35:30;100626.72;;;5.63;100.00
72896;BME280;61036;53.224;6.554;2024-03-08T09:37:55;100684.34;;;5.37;100.00
72896;BME280;61036;53.224;6.554;2024-03-08T09:40:21;100696.97;;;6.43;100.00
72896;BME280;61036;53.224;6.554;2024-03-08T09:42:49;100716.59;;;5.18;100.00
72896;BME280;61036;53.224;6.554;2024-03-08T09:45:16;100725.31;;;7.35;100.00
72896;BME280;61036;53.224;6.554;2024-03-08T09:47:43;100800.06;;;8.65;100.00
72896;BME280;61036;53.224;6.554;2024-03-08T09:50:09;100921.63;;;8.83;100.00
72896;BME280;61036;53.224;6.554;2024-03-08T09:52:41;100889.19;;;7.16;100.00
72896;BME280;61036;53.224;6.554;2024-03-08T09:55:10;100840.47;;;7.52;100.00
72896;BME280;61036;53.224;6.554;2024-03-08T09:57:43;101002.28;;;8.97;100.00
72896;BME280;61036;53.224;6.554;2024-03-08T10:00:27;101070.34;;;9.66;100.00
72896;BME280;61036;53.224;6.554;2024-03-08T10:02:53;101110.66;;;11.58;100.00
72896;BME280;61036;53.224;6.554;2024-03-08T10:05:19;101223.59;;;8.40;100.00
72896;BME280;61036;53.224;6.554;2024-03-08T10:07:45;101257.41;;;11.95;100.00
72896;BME280;61036;53.224;6.554;2024-03-08T10:10:10;101394.31;;;10.10;100.00
72896;BME280;61036;53.224;6.554;2024-03-08T10:12:38;101424.63;;;10.96;100.00
72896;BME280;61036;53.224;6.554;2024-03-08T10:15:07;101518.78;;;10.59;100.00
72896;BME280;61036;53.224;6.554;2024-03-08T10:17:34;101515.47;;;9.97;100.00
72896;BME280;61036;53.224;6.554;2024-03-08T10:20:00;101526.88;;;10.30;100.00
72896;BME280;61036;53.224;6.554;2024-03-08T10:22:26;101585.78;;;12.15;100.00
72896;BME280;61036;53.224;6.554;2024-03-08T10:24:52;101576.66;;;11.51;100.00
72896;BME280;61036;53.224;6.554;2024-03-08T10:27:18;101606.41;;;12.03;100.00
72896;BME280;61036;53.224;6.554;2024-03-08T10:29:47;101617.75;;;10.28;100.00
72896;BME280;61036;53.224;6.554;2024-03-08T10:32:13;101572.34;;;10.51;100.00
72896;BME280;61036;53.224;6.554;2024-03-08T10:34:39;101399.19;;;5.79;100.00
72896;BME280;61036;53.224;6.554;2024-03-08T10:37:05;101234.75;;;6.03;100.00
72896;BME280;61036;53.224;6.554;2024-03-08T10:39:35;101077.25;;;5.42;100.00
72896;BME280;61036;53.224;6.554;2024-03-08T10:42:03;100989.38;;;5.69;100.00
72896;BME280;61036;53.224;6.554;2024-03-08T10:49:30;100849.81;;;5.43;100.00
72896;BME280;61036;53.224;6.554;2024-03-08T10:51:57;100785.63;;;6.54;100.00
72896;BME280;61036;53.224;6.554;2024-03-08T10:54:25;100871.66;;;5.85;100.00
72896;BME280;61036;53.224;6.554;2024-03-08T10:56:51;100859.16;;;6.49;100.00
72896;BME280;61036;53.224;6.554;2024-03-08T10:59:18;100868.00;;;6.03;100.00
72896;BME280;61036;53.224;6.554;2024-03-08T11:01:45;100850.13;;;6.35;100.00
72896;BME280;61036;53.224;6.554;2024-03-08T11:04:11;100866.97;;;5.39;100.00
72896;BME280;61036;53.224;6.554;2024-03-08T11:09:02;100817.22;;;6.17;100.00
72896;BME280;61036;53.224;6.554;2024-03-08T11:14:00;100869.06;;;5.83;100.00
72896;BME280;61036;53.224;6.554;2024-03-08T11:21:37;100821.13;;;6.58;100.00
72896;BME280;61036;53.224;6.554;2024-03-08T11:24:10;100850.16;;;6.66;100.00
72896;BME280;61036;53.224;6.554;2024-03-08T11:26:42;100817.53;;;6.43;100.00
72896;BME280;61036;53.224;6.554;2024-03-08T11:32:17;100852.31;;;6.75;100.00
72896;BME280;61036;53.224;6.554;2024-03-08T11:34:49;100859.44;;;6.44;100.00
72896;BME280;61036;53.224;6.554;2024-03-08T11:37:19;100835.97;;;6.94;100.00
72896;BME280;61036;53.224;6.554;2024-03-08T11:39:55;100847.94;;;7.32;100.00
72896;BME280;61036;53.224;6.554;2024-03-08T11:42:30;100912.81;;;6.79;100.00
72896;BME280;61036;53.224;6.554;2024-03-08T11:44:56;100890.13;;;6.38;100.00
72896;BME280;61036;53.224;6.554;2024-03-08T11:47:22;100844.69;;;6.67;100.00
72896;BME280;61036;53.224;6.554;2024-03-08T11:49:48;100851.03;;;6.96;100.00
72896;BME280;61036;53.224;6.554;2024-03-08T11:52:18;100850.81;;;7.29;100.00
72896;BME280;61036;53.224;6.554;2024-03-08T11:54:54;100907.53;;;6.77;100.00
72896;BME280;61036;53.224;6.554;2024-03-08T11:57:23;100897.59;;;7.09;100.00
72896;BME280;61036;53.224;6.554;2024-03-08T11:59:53;100856.94;;;7.60;100.00
72896;BME280;61036;53.224;6.554;2024-03-08T12:02:20;100874.09;;;7.29;100.00
72896;BME280;61036;53.224;6.554;2024-03-08T12:04:47;100881.41;;;7.55;100.00
72896;BME280;61036;53.224;6.554;2024-03-08T12:07:13;100917.88;;;6.99;100.00
72896;BME280;61036;53.224;6.554;2024-03-08T12:09:42;100830.13;;;7.74;100.00
72896;BME280;61036;53.224;6.554;2024-03-08T12:12:11;100850.03;;;7.27;100.00
72896;BME280;61036;53.224;6.554;2024-03-08T12:14:37;100870.34;;;7.46;100.00
72896;BME280;61036;53.224;6.554;2024-03-08T12:17:04;100895.31;;;7.62;100.00
72896;BME280;61036;53.224;6.554;2024-03-08T12:19:30;100857.81;;;7.61;100.00
72896;BME280;61036;53.224;6.554;2024-03-08T12:21:56;100879.59;;;7.56;100.00
72896;BME280;61036;53.224;6.554;2024-03-08T12:24:22;100818.03;;;7.82;100.00
72896;BME280;61036;53.224;6.554;2024-03-08T12:26:48;100832.47;;;7.93;100.00
72896;BME280;61036;53.224;6.554;2024-03-08T12:31:46;100865.78;;;7.62;100.00
72896;BME280;61036;53.224;6.554;2024-03-08T12:34:13;100856.75;;;7.63;100.00
72896;BME280;61036;53.224;6.554;2024-03-08T12:36:47;100847.25;;;8.00;100.00
72896;BME280;61036;53.224;6.554;2024-03-08T12:39:15;100823.97;;;7.87;100.00
72896;BME280;61036;53.224;6.554;2024-03-08T12:41:41;100802.88;;;7.95;100.00
72896;BME280;61036;53.224;6.554;2024-03-08T12:44:07;100801.56;;;7.73;100.00
72896;BME280;61036;53.224;6.554;2024-03-08T12:46:37;100831.28;;;8.12;100.00
72896;BME280;61036;53.224;6.554;2024-03-08T12:49:08;100866.25;;;7.97;100.00
72896;BME280;61036;53.224;6.554;2024-03-08T12:51:35;100854.78;;;8.22;100.00
72896;BME280;61036;53.224;6.554;2024-03-08T12:54:02;100847.28;;;7.72;100.00
72896;BME280;61036;53.224;6.554;2024-03-08T12:56:29;100822.44;;;8.24;100.00
72896;BME280;61036;53.224;6.554;2024-03-08T12:58:56;100816.03;;;8.54;100.00
72896;BME280;61036;53.224;6.554;2024-03-08T13:01:22;100836.84;;;8.23;100.00
72896;BME280;61036;53.224;6.554;2024-03-08T13:03:48;100822.94;;;8.16;100.00
72896;BME280;61036;53.224;6.554;2024-03-08T13:06:15;100857.44;;;7.67;100.00
72896;BME280;61036;53.224;6.554;2024-03-08T13:08:41;100842.34;;;8.07;100.00